Observations for ST. NAZAIRE MONTOIR, France (LFRZ)

LFRZ 202230Z AUTO 18008KT 9999 OVC017 11/10 Q1020 TEMPO 3000 BR OVC005  
LFRZ 202200Z AUTO 20009KT 9999 OVC016 12/10 Q1020 TEMPO 3000 BR OVC005  
LFRZ 202130Z AUTO 20009KT 9999 OVC016 12/10 Q1021 TEMPO 3000 BR OVC005  
LFRZ 202100Z AUTO 19008KT 9999 OVC016 12/10 Q1021 TEMPO 3000 BR OVC005  
LFRZ 202030Z AUTO 19009KT 9999 OVC017 12/10 Q1021 TEMPO 3000 BR OVC005  
LFRZ 202000Z AUTO 18007KT 9999 OVC017 12/10 Q1021 TEMPO 3000 BR OVC005  
LFRZ 201930Z AUTO 19009KT 9999 OVC019 12/10 Q1021 TEMPO 3000 BR OVC005  
LFRZ 201900Z AUTO 19007KT 9999 OVC019 12/10 Q1021 BECMG BKN012  
LFRZ 201830Z AUTO 19009KT 150V210 9999 OVC020 12/10 Q1021 BECMG BKN012  
LFRZ 201800Z AUTO 20010KT 9999 OVC021 12/10 Q1021 BECMG BKN012  
LFRZ 201730Z AUTO 19010KT 9999 FEW013 OVC021 12/10 Q1021 NOSIG  
LFRZ 201700Z AUTO 21009KT 9999 SCT014 OVC022 13/10 Q1021 NOSIG  
LFRZ 201630Z AUTO 21008KT 9999 OVC021 13/10 Q1021 NOSIG 
LFRZ 201600Z AUTO 20008KT 9999 OVC023 13/11 Q1021 NOSIG 
LFRZ 201530Z AUTO 20009KT 9999 OVC022 13/11 Q1022 NOSIG 
LFRZ 201500Z AUTO 20008KT 9999 OVC020 13/11 Q1022 NOSIG 
LFRZ 201430Z AUTO 20010KT 9999 OVC019 13/11 Q1022 NOSIG 
LFRZ 201400Z AUTO 20009KT 9999 OVC021 13/11 Q1022 NOSIG 
LFRZ 201330Z AUTO 20009KT 9999 OVC022 13/11 Q1022 NOSIG 
LFRZ 201300Z AUTO 20010KT 9999 OVC023 13/11 Q1022 NOSIG 
LFRZ 201230Z AUTO 20008KT 9999 OVC022 13/11 Q1023 NOSIG 
LFRZ 201200Z AUTO 20009KT 9999 OVC023 13/11 Q1023 NOSIG 
LFRZ 201130Z AUTO 19009KT 9999 OVC024 13/11 Q1023 NOSIG 
LFRZ 201100Z AUTO 17006KT 9999 OVC024 13/11 Q1024 NOSIG 
LFRZ 201030Z AUTO 18004KT 150V210 9999 OVC024 12/11 Q1024 NOSIG 
LFRZ 201000Z AUTO 18006KT 9999 BKN024 OVC029 11/11 Q1024 NOSIG  
LFRZ 200930Z AUTO 16004KT 9999 OVC025 11/10 Q1024 NOSIG 
LFRZ 200900Z AUTO 12003KT 8000 FEW004 OVC026 09/09 Q1024 NOSIG  
LFRZ 200830Z AUTO 12003KT 5000 BR FEW003 OVC025 09/09 Q1024 NOSIG   
LFRZ 200800Z AUTO 11003KT 3700 BR SCT002 SCT016 OVC025 09/09 Q1024 BECMG 9999 NSW   
LFRZ 200730Z AUTO 10004KT 3100 -RA BR BKN003 OVC024 08/08 Q1024 BECMG 9999 NSW BKN020   
LFRZ 200700Z AUTO VRB02KT 5000 BR OVC023 08/08 Q1024 TEMPO 0400 FG VV///
LFRZ 200630Z AUTO 07001KT 3700 BR OVC022 09/09 Q1024 TEMPO VV/// BECMG 9999 NSW 
LFRZ 200600Z AUTO VRB02KT 5000 BR FEW009 OVC022 09/09 Q1023 TEMPO 0400 FG VV/// 
LFRZ 200530Z AUTO VRB02KT 1000 0900 R25/1200U BCFG FEW014 BKN023 09/09 Q1023 TEMPO 0400 FG VV///
LFRZ 200500Z AUTO 16002KT 4100 BR SCT002 BKN014 OVC023 06/06 Q1023 TEMPO 0300 VV/// 
LFRZ 200430Z AUTO 00000KT 0550 0400 R25/0750D FG VV/// 05/04 Q1024 TEMPO 0300   
LFRZ 200400Z AUTO 00000KT 0300 0250 R25/0375N FG VV/// 05/05 Q1024 NOSIG
LFRZ 200330Z AUTO 25002KT 0350 0300 R25/0600U FG VV/// 05/05 Q1024 NOSIG
LFRZ 200300Z AUTO 23001KT 0350 0300 R25/0450D FG VV/// 06/06 Q1024 NOSIG
LFRZ 200230Z AUTO 00000KT 0350 0300 R25/0600U FG VV/// 06/06 Q1024 NOSIG
LFRZ 200200Z AUTO 23002KT 0200 R25/M0200N FG VV/// 06/05 Q1024 NOSIG
LFRZ 200130Z AUTO 00000KT 0300 0200 R25/0350N FG VV/// 05/05 Q1025 NOSIG
LFRZ 200100Z AUTO 00000KT 0300 R25/0400N FG VV/// 06/05 Q1025 TEMPO 0600 FG BKN005  
LFRZ 200030Z AUTO 07002KT 0350 0300 R25/0375N FG OVC004 06/05 Q1025 TEMPO 0600 FG VV/// 
LFRZ 200000Z AUTO 00000KT 0350 R25/0450D FG BKN006 07/07 Q1025 BECMG 0600 FG
LFRZ 192330Z AUTO 00000KT 0350 0300 R25/0550N FG FEW004 BKN009 BKN028 07/07 Q1025 BECMG 0600 FG 
LFRZ 192300Z AUTO 00000KT 0600 0500 R25/0650U FG OVC029 08/08 Q1025 BECMG 3000 BR BKN005
LFRZ 192230Z AUTO 00000KT 0650 0600 R25/0750D FG FEW004 SCT030 08/07 Q1025 BECMG 3000 BR BKN005 
LFRZ 192200Z AUTO VRB02KT 2900 1100 R25/1400D BR FEW027 10/09 Q1025 BECMG 3000 BR BKN005